Time;durP1;ratioP1;P1;durP2;ratioP2;P2;SDS_P1;SDS_P2;PMS_P1;PMS_P2;Temp;Humidity;BMP_temperature;BMP_pressure;BME280_temperature;BME280_humidity;BME280_pressure;Samples;Min_cycle;Max_cycle;Signal;HPM_P1;HPM_P2
2021/07/27 00:00:58;;;;;;;5.63;5.13;;;;;;;11.16;100.00;93100.47;2106775;28;20023;-85
2021/07/27 00:01:59;;;;;;;9.25;4.80;;;;;;;11.19;100.00;93101.56;2106896;28;20094;-85
2021/07/27 00:03:01;;;;;;;7.85;5.13;;;;;;;11.15;100.00;93096.31;2098455;28;20362;-85
2021/07/27 00:04:02;;;;;;;8.70;5.15;;;;;;;11.19;100.00;93096.19;2090338;28;20028;-85
2021/07/27 00:05:03;;;;;;;9.65;5.68;;;;;;;11.20;100.00;93093.13;2090170;28;20017;-85
2021/07/27 00:06:09;;;;;;;10.82;5.50;;;;;;;11.17;100.00;93093.97;2098253;28;20145;-85
2021/07/27 00:07:09;;;;;;;9.30;4.88;;;;;;;11.07;100.00;93095.72;2106352;28;20107;-85
2021/07/27 00:08:11;;;;;;;5.82;5.20;;;;;;;11.12;100.00;93096.41;2090266;28;20028;-85
2021/07/27 00:09:12;;;;;;;5.30;4.80;;;;;;;11.12;100.00;93091.03;2082142;28;20494;-85
2021/07/27 00:10:12;;;;;;;6.22;5.38;;;;;;;11.10;100.00;93089.50;2090064;28;20017;-85
2021/07/27 00:11:13;;;;;;;7.80;4.90;;;;;;;11.10;100.00;93086.09;2098363;28;20401;-85
2021/07/27 00:12:14;;;;;;;5.32;4.75;;;;;;;11.05;100.00;93086.59;2098229;28;20073;-85
2021/07/27 00:13:15;;;;;;;5.78;4.40;;;;;;;11.05;100.00;93081.25;2098267;28;20024;-85
2021/07/27 00:14:16;;;;;;;5.13;4.53;;;;;;;11.01;100.00;93077.91;2090051;28;20025;-85
2021/07/27 00:15:17;;;;;;;6.15;4.50;;;;;;;11.00;100.00;93079.84;2090649;28;20029;-86
2021/07/27 00:16:18;;;;;;;6.60;4.95;;;;;;;11.01;100.00;93080.59;2083084;28;20048;-86
2021/07/27 00:17:19;;;;;;;8.07;4.93;;;;;;;10.95;100.00;93076.91;2089977;28;20021;-84
2021/07/27 00:18:20;;;;;;;7.82;4.60;;;;;;;10.91;100.00;93076.25;2098278;28;20028;-85
2021/07/27 00:19:21;;;;;;;5.32;4.82;;;;;;;10.91;100.00;93066.31;2090077;28;20031;-85
2021/07/27 00:20:22;;;;;;;5.10;4.57;;;;;;;10.84;100.00;93080.59;2098267;28;20090;-85
2021/07/27 00:21:23;;;;;;;5.72;5.13;;;;;;;10.81;100.00;93072.66;2089734;28;20025;-85
2021/07/27 00:22:24;;;;;;;8.10;4.75;;;;;;;10.85;100.00;93062.63;2081753;28;20032;-84
2021/07/27 00:23:24;;;;;;;12.65;4.88;;;;;;;10.86;100.00;93063.38;2081766;28;20017;-86
2021/07/27 00:24:26;;;;;;;5.65;4.80;;;;;;;10.86;100.00;93066.06;2090093;28;20490;-85
2021/07/27 00:25:27;;;;;;;8.07;5.53;;;;;;;10.84;100.00;93071.81;2082062;28;20965;-85
2021/07/27 00:26:28;;;;;;;5.93;4.85;;;;;;;10.84;100.00;93074.47;2089868;28;20029;-86
2021/07/27 00:27:29;;;;;;;7.63;4.43;;;;;;;10.87;100.00;93060.28;2089957;28;20021;-85
2021/07/27 00:28:30;;;;;;;6.30;4.22;;;;;;;10.83;100.00;93064.97;2081604;28;20033;-85
2021/07/27 00:29:33;;;;;;;5.43;4.72;;;;;;;10.82;100.00;93071.47;2089732;28;20020;-85
2021/07/27 00:30:34;;;;;;;6.13;4.60;;;;;;;10.90;100.00;93064.06;2089159;28;20528;-85
2021/07/27 00:31:35;;;;;;;10.60;4.50;;;;;;;10.88;100.00;93061.03;2089882;28;20496;-85
2021/07/27 00:32:41;;;;;;;7.15;5.60;;;;;;;10.84;100.00;93061.88;2089969;28;20111;-85
2021/07/27 00:33:43;;;;;;;10.85;5.40;;;;;;;10.77;100.00;93064.72;2090965;28;20021;-85
2021/07/27 00:34:44;;;;;;;5.88;4.93;;;;;;;10.82;100.00;93052.78;2085177;28;20025;-85
2021/07/27 00:35:45;;;;;;;7.85;5.60;;;;;;;10.87;100.00;93062.97;2081575;28;20572;-85
2021/07/27 00:36:45;;;;;;;4.97;4.50;;;;;;;10.86;100.00;93053.44;2089955;28;20091;-85
2021/07/27 00:37:48;;;;;;;12.75;5.60;;;;;;;10.86;100.00;93058.78;2089901;28;20028;-85
2021/07/27 00:38:49;;;;;;;6.65;5.28;;;;;;;10.84;100.00;93058.44;2098276;28;20021;-86
2021/07/27 00:39:50;;;;;;;7.57;5.15;;;;;;;10.86;100.00;93050.75;2096839;28;20047;-85
2021/07/27 00:40:50;;;;;;;5.30;4.80;;;;;;;10.86;100.00;93053.44;2104807;28;20028;-85
2021/07/27 00:41:51;;;;;;;6.60;5.25;;;;;;;10.85;100.00;93054.63;2106439;28;20035;-86
2021/07/27 00:43:05;;;;;;;5.82;5.30;;;;;;;10.77;100.00;93055.94;2098301;28;20020;-86
2021/07/27 00:44:06;;;;;;;14.18;5.00;;;;;;;10.81;100.00;93052.03;2099918;28;20033;-85
2021/07/27 00:45:08;;;;;;;7.63;4.93;;;;;;;10.72;100.00;93048.44;2089662;28;20031;-86
2021/07/27 00:46:09;;;;;;;9.80;4.78;;;;;;;10.70;100.00;93056.09;2081047;28;20052;-86
2021/07/27 00:47:10;;;;;;;5.22;4.53;;;;;;;10.63;100.00;93046.34;2086754;28;20040;-85
2021/07/27 00:48:10;;;;;;;5.65;4.60;;;;;;;10.62;100.00;93049.41;2089755;28;20490;-85
2021/07/27 00:49:12;;;;;;;7.07;4.38;;;;;;;10.57;100.00;93048.00;2093897;28;20020;-85
2021/07/27 00:50:13;;;;;;;6.85;4.70;;;;;;;10.64;100.00;93049.75;2101321;28;20497;-85
2021/07/27 00:51:14;;;;;;;5.85;4.13;;;;;;;10.54;100.00;93059.53;2089562;28;20024;-85
2021/07/27 00:52:15;;;;;;;5.65;4.43;;;;;;;10.52;100.00;93048.50;2097782;28;20028;-85
2021/07/27 00:53:16;;;;;;;5.57;5.05;;;;;;;10.56;100.00;93057.94;2098012;28;20538;-85
2021/07/27 00:54:17;;;;;;;8.35;5.28;;;;;;;10.59;100.00;93061.72;2089976;28;20021;-85
2021/07/27 00:55:18;;;;;;;6.78;4.38;;;;;;;10.65;100.00;93061.94;2101442;28;20044;-86
2021/07/27 00:56:19;;;;;;;7.53;4.35;;;;;;;10.65;100.00;93064.63;2094700;28;20096;-86
2021/07/27 00:57:22;;;;;;;10.13;5.03;;;;;;;10.66;100.00;93061.53;2098164;28;20027;-85
2021/07/27 00:58:23;;;;;;;11.43;4.13;;;;;;;10.65;100.00;93062.69;2097908;28;20020;-85
2021/07/27 00:59:26;;;;;;;5.22;3.60;;;;;;;10.62;100.00;93062.78;2097933;28;20510;-85
2021/07/27 01:00:27;;;;;;;5.18;3.83;;;;;;;10.59;100.00;93062.47;2097783;28;20056;-86
2021/07/27 01:01:30;;;;;;;4.80;4.28;;;;;;;10.60;100.00;93052.50;2081488;28;20025;-86
2021/07/27 01:02:31;;;;;;;5.40;4.28;;;;;;;10.62;100.00;93054.75;2090319;28;20411;-85
2021/07/27 01:03:32;;;;;;;4.32;3.90;;;;;;;10.61;100.00;93055.94;2097960;28;20035;-85
2021/07/27 01:04:33;;;;;;;4.22;3.80;;;;;;;10.58;100.00;93052.94;2097820;28;20044;-86
2021/07/27 01:05:34;;;;;;;5.70;4.47;;;;;;;10.59;100.00;93056.38;2093742;28;20067;-85
2021/07/27 01:06:35;;;;;;;5.75;3.95;;;;;;;10.55;100.00;93050.34;2089120;28;20044;-85
2021/07/27 01:07:37;;;;;;;4.63;4.22;;;;;;;10.50;100.00;93058.84;2097674;28;20100;-85
2021/07/27 01:08:38;;;;;;;11.63;4.13;;;;;;;10.49;100.00;93057.34;2097846;28;20024;-86
2021/07/27 01:09:40;;;;;;;6.95;4.05;;;;;;;10.44;100.00;93060.50;2102141;28;20023;-85
2021/07/27 01:10:42;;;;;;;4.90;4.43;;;;;;;10.42;100.00;93063.59;2109273;28;20408;-85
2021/07/27 01:11:43;;;;;;;6.10;4.10;;;;;;;10.46;100.00;93063.53;2106444;28;20024;-84
2021/07/27 01:12:46;;;;;;;7.90;4.63;;;;;;;10.39;100.00;93064.44;2097518;28;20628;-85
2021/07/27 01:13:47;;;;;;;10.63;4.60;;;;;;;10.43;100.00;93059.75;2086682;28;20040;-85
2021/07/27 01:14:48;;;;;;;6.90;4.72;;;;;;;10.42;100.00;93062.84;2089528;28;20025;-85
2021/07/27 01:15:49;;;;;;;5.68;4.90;;;;;;;10.31;100.00;93061.16;2095844;28;20027;-86
2021/07/27 01:16:50;;;;;;;5.22;4.35;;;;;;;10.42;100.00;93062.84;2106097;28;20047;-85
2021/07/27 01:17:58;;;;;;;9.20;5.10;;;;;;;10.41;100.00;93061.34;2111544;28;20089;-86
2021/07/27 01:19:19;;;;;;;6.85;4.22;;;;;;;10.34;100.00;93070.25;2112923;28;20076;-86
2021/07/27 01:20:31;;;;;;;6.65;5.40;;;;;;;10.35;100.00;93069.09;2108742;28;20032;-86
2021/07/27 01:37:47;;;;;;;10.45;4.70;;;;;;;10.27;100.00;93075.75;2106676;28;20070;-85
2021/07/27 01:39:49;;;;;;;6.03;4.93;;;;;;;10.28;100.00;93080.69;2108482;28;20036;-85
2021/07/27 01:40:19;;;;;;;4.68;4.28;;;;;;;10.23;100.00;93080.41;2100418;28;20088;-85
2021/07/27 01:42:21;;;;;;;10.63;4.50;;;;;;;10.23;100.00;93077.75;2097870;28;20465;-85
2021/07/27 01:43:28;;;;;;;5.45;4.50;;;;;;;10.20;100.00;93083.91;2100647;28;20079;-85
2021/07/27 01:44:29;;;;;;;9.77;5.00;;;;;;;10.16;100.00;93077.88;2091178;28;20029;-85
2021/07/27 01:45:30;;;;;;;7.75;4.65;;;;;;;10.12;100.00;93082.53;2097352;28;20051;-86
2021/07/27 01:46:35;;;;;;;9.15;5.00;;;;;;;10.06;100.00;93079.59;2106245;28;20042;-84
2021/07/27 01:47:36;;;;;;;7.80;4.57;;;;;;;10.05;100.00;93086.09;2100729;28;20020;-85
2021/07/27 01:48:37;;;;;;;4.90;4.28;;;;;;;10.02;100.00;93087.69;2106155;28;20028;-85
2021/07/27 01:49:40;;;;;;;4.78;4.35;;;;;;;10.03;100.00;93081.19;2105797;28;20103;-86
2021/07/27 01:50:42;;;;;;;5.18;4.65;;;;;;;10.06;100.00;93085.69;2090026;28;20024;-85
2021/07/27 01:51:43;;;;;;;5.88;5.32;;;;;;;10.05;100.00;93088.75;2097717;28;20025;-84
2021/07/27 01:52:47;;;;;;;7.00;4.90;;;;;;;10.04;100.00;93090.69;2106184;28;20552;-85
2021/07/27 01:53:53;;;;;;;6.00;4.47;;;;;;;9.92;100.00;93091.34;2097875;28;20562;-85
2021/07/27 01:54:57;;;;;;;8.05;4.43;;;;;;;9.94;100.00;93089.00;2094355;28;20021;-85
2021/07/27 01:55:58;;;;;;;6.53;4.55;;;;;;;9.82;100.00;93092.28;2090261;28;20042;-85
2021/07/27 01:56:59;;;;;;;6.93;4.50;;;;;;;9.87;100.00;93083.78;2088618;28;20021;-85
2021/07/27 01:58:01;;;;;;;5.15;4.45;;;;;;;9.94;100.00;93082.91;2105627;28;20562;-85
2021/07/27 01:59:02;;;;;;;9.05;5.03;;;;;;;9.93;100.00;93078.72;2106350;28;20891;-85
2021/07/27 02:00:05;;;;;;;5.05;4.43;;;;;;;9.87;100.00;93081.09;2106076;28;20063;-85
2021/07/27 02:01:06;;;;;;;6.90;4.57;;;;;;;9.88;100.00;93074.63;2094995;28;20038;-85
2021/07/27 02:02:11;;;;;;;7.38;4.70;;;;;;;9.88;100.00;93082.63;2101749;28;20480;-85
2021/07/27 02:03:15;;;;;;;5.05;4.30;;;;;;;9.80;100.00;93076.69;2097859;28;20433;-86
2021/07/27 02:04:16;;;;;;;5.78;5.18;;;;;;;9.79;100.00;93077.09;2106335;28;20023;-85
2021/07/27 02:06:32;;;;;;;;;;;;;;;9.76;100.00;93086.66;2134671;27;20167;-87
2021/07/27 02:07:36;;;;;;;4.15;3.83;;;;;;;9.72;100.00;93079.91;2121529;27;19948;-86
2021/07/27 02:08:37;;;;;;;4.78;4.00;;;;;;;9.76;100.00;93083.25;2103038;28;20069;-86
2021/07/27 02:09:41;;;;;;;5.60;4.68;;;;;;;9.75;100.00;93085.16;2112260;28;20906;-87
2021/07/27 02:10:47;;;;;;;7.72;4.80;;;;;;;9.70;100.00;93076.88;2110750;28;20082;-87
2021/07/27 02:11:53;;;;;;;5.28;4.32;;;;;;;9.72;100.00;93079.91;2114606;27;20054;-87
2021/07/27 02:13:01;;;;;;;6.63;4.50;;;;;;;9.69;100.00;93080.72;2113613;28;20064;-86
2021/07/27 02:14:03;;;;;;;6.15;4.57;;;;;;;9.60;100.00;93083.91;2114208;28;20026;-87
2021/07/27 02:15:07;;;;;;;4.75;4.25;;;;;;;9.71;100.00;93086.41;2104899;28;20023;-87
2021/07/27 02:16:08;;;;;;;8.20;5.03;;;;;;;9.66;100.00;93084.97;2113587;28;20020;-87
2021/07/27 02:17:09;;;;;;;6.50;4.15;;;;;;;9.62;100.00;93075.53;2110480;28;20054;-87
2021/07/27 02:18:10;;;;;;;7.05;4.68;;;;;;;9.63;100.00;93072.44;2121088;28;20026;-87
2021/07/27 02:19:11;;;;;;;4.65;4.20;;;;;;;9.63;100.00;93069.00;2113237;28;20032;-88
2021/07/27 02:20:12;;;;;;;4.72;4.15;;;;;;;9.61;100.00;93068.66;2104651;28;20028;-87
2021/07/27 02:21:13;;;;;;;10.30;4.32;;;;;;;9.61;100.00;93065.97;2104414;28;20955;-87
2021/07/27 02:22:17;;;;;;;5.07;4.50;;;;;;;9.60;100.00;93067.91;2111145;28;20023;-87
2021/07/27 02:23:19;;;;;;;4.95;3.47;;;;;;;9.59;100.00;93063.72;2101728;28;20027;-87
2021/07/27 02:24:20;;;;;;;5.63;4.57;;;;;;;9.64;100.00;93067.84;2104811;28;20020;-87
2021/07/27 02:25:21;;;;;;;7.95;4.88;;;;;;;9.71;100.00;93065.06;2104339;28;20031;-87
2021/07/27 02:26:22;;;;;;;8.13;5.05;;;;;;;9.73;100.00;93065.38;2104748;28;20115;-87
2021/07/27 02:27:29;;;;;;;5.80;4.43;;;;;;;9.74;100.00;93064.22;2104535;28;20893;-87
2021/07/27 02:28:33;;;;;;;4.78;4.30;;;;;;;9.75;100.00;93063.06;2106297;28;20016;-87
2021/07/27 02:29:34;;;;;;;9.88;5.60;;;;;;;9.79;100.00;93064.50;2105610;28;20523;-87
2021/07/27 02:30:38;;;;;;;11.05;5.05;;;;;;;9.80;100.00;93063.31;2104809;28;20020;-87
2021/07/27 02:31:42;;;;;;;8.70;5.38;;;;;;;9.78;100.00;93059.56;2105266;28;20027;-87
2021/07/27 02:32:45;;;;;;;6.50;5.10;;;;;;;9.72;100.00;93058.53;2112843;27;20137;-87
2021/07/27 02:33:46;;;;;;;6.07;5.30;;;;;;;9.70;100.00;93064.31;2113090;28;20028;-87
2021/07/27 02:34:46;;;;;;;6.68;5.20;;;;;;;9.74;100.00;93056.94;2113027;28;20020;-87
2021/07/27 02:35:47;;;;;;;5.65;5.00;;;;;;;9.75;100.00;93071.81;2104660;28;20020;-86
2021/07/27 02:36:48;;;;;;;6.45;4.65;;;;;;;9.74;100.00;93066.88;2113483;28;20808;-86
2021/07/27 02:37:49;;;;;;;5.18;4.70;;;;;;;9.74;100.00;93064.97;2112994;28;20027;-87
2021/07/27 02:38:50;;;;;;;6.47;5.15;;;;;;;9.72;100.00;93061.97;2104629;28;20354;-87
2021/07/27 02:39:51;;;;;;;8.25;4.93;;;;;;;9.81;100.00;93062.16;2109987;28;20028;-86
2021/07/27 02:40:52;;;;;;;7.50;4.97;;;;;;;9.78;100.00;93062.97;2112912;28;20574;-87
2021/07/27 02:41:53;;;;;;;5.35;4.85;;;;;;;9.79;100.00;93064.50;2106075;28;20492;-87
2021/07/27 02:42:55;;;;;;;8.43;4.68;;;;;;;9.82;100.00;93068.25;2112953;28;20031;-86
2021/07/27 02:43:57;;;;;;;5.70;4.80;;;;;;;9.82;100.00;93065.56;2104438;28;20855;-86
2021/07/27 02:44:58;;;;;;;5.95;4.63;;;;;;;9.81;100.00;93061.41;2113130;27;20051;-87
2021/07/27 02:45:59;;;;;;;5.35;4.82;;;;;;;9.83;100.00;93059.84;2121228;28;20028;-87
2021/07/27 02:47:02;;;;;;;6.47;4.63;;;;;;;9.73;100.00;93060.03;2108982;28;20016;-87
2021/07/27 02:48:04;;;;;;;7.18;4.90;;;;;;;9.68;100.00;93063.19;2104662;28;20028;-86
2021/07/27 02:49:05;;;;;;;5.15;4.65;;;;;;;9.65;100.00;93061.34;2108521;27;20026;-86
2021/07/27 02:50:07;;;;;;;5.85;5.32;;;;;;;9.70;100.00;93055.50;2112981;28;20019;-87
2021/07/27 02:51:11;;;;;;;6.38;4.38;;;;;;;9.69;100.00;93060.09;2121539;27;20024;-86
2021/07/27 02:52:12;;;;;;;9.52;4.95;;;;;;;9.70;100.00;93066.19;2117650;27;20023;-86
2021/07/27 02:53:15;;;;;;;7.07;4.57;;;;;;;9.73;100.00;93062.72;2112890;28;20024;-86
2021/07/27 02:54:16;;;;;;;7.25;4.90;;;;;;;9.72;100.00;93061.22;2104717;28;20824;-87
2021/07/27 02:55:17;;;;;;;6.40;4.35;;;;;;;9.67;100.00;93057.09;2113311;27;20020;-86
2021/07/27 02:56:20;;;;;;;9.07;4.82;;;;;;;9.70;100.00;93064.31;2112721;28;20016;-86
2021/07/27 02:57:21;;;;;;;6.10;4.95;;;;;;;9.68;100.00;93061.28;2110133;27;20468;-87
2021/07/27 02:58:21;;;;;;;6.90;4.45;;;;;;;9.67;100.00;93059.78;2121283;28;20035;-87
2021/07/27 02:59:22;;;;;;;7.82;4.97;;;;;;;9.67;100.00;93059.03;2121196;27;20450;-85
2021/07/27 03:00:23;;;;;;;6.57;4.80;;;;;;;9.67;100.00;93062.44;2121427;27;20035;-87
2021/07/27 03:01:24;;;;;;;8.68;4.35;;;;;;;9.67;100.00;93067.78;2112978;28;20038;-87
2021/07/27 03:02:25;;;;;;;5.40;4.88;;;;;;;9.65;100.00;93062.09;2112822;28;20077;-86
2021/07/27 03:03:26;;;;;;;4.70;4.10;;;;;;;9.63;100.00;93058.34;2112818;28;20079;-87
2021/07/27 03:04:27;;;;;;;9.82;4.78;;;;;;;9.62;100.00;93070.19;2112717;28;20077;-87
2021/07/27 03:05:28;;;;;;;5.95;4.18;;;;;;;9.65;100.00;93059.41;2112920;28;20078;-86
2021/07/27 03:06:31;;;;;;;5.68;4.68;;;;;;;9.64;100.00;93068.59;2110651;28;20373;-86
2021/07/27 03:11:15;;;;;;;8.50;4.63;;;;;;;9.60;100.00;93065.22;2120103;27;20023;-86
2021/07/27 03:12:16;;;;;;;7.22;4.55;;;;;;;9.55;100.00;93058.47;2112652;28;20027;-87
2021/07/27 03:13:17;;;;;;;9.93;5.32;;;;;;;9.58;100.00;93059.56;2112800;28;20028;-86
2021/07/27 03:14:18;;;;;;;6.90;4.85;;;;;;;9.55;100.00;93055.03;2111188;28;20494;-87
2021/07/27 03:15:21;;;;;;;6.40;5.07;;;;;;;9.64;100.00;93059.84;2104216;28;20032;-88
2021/07/27 03:16:24;;;;;;;8.82;5.63;;;;;;;9.64;100.00;93062.50;2113284;27;20048;-87
2021/07/27 03:17:28;;;;;;;8.57;4.82;;;;;;;9.62;100.00;93057.59;2110163;28;20020;-87
2021/07/27 03:18:29;;;;;;;6.45;5.55;;;;;;;9.62;100.00;93064.84;2107582;28;20632;-87
2021/07/27 03:19:30;;;;;;;7.93;5.45;;;;;;;9.58;100.00;93067.56;2106972;28;20031;-87
2021/07/27 03:20:32;;;;;;;7.57;5.50;;;;;;;9.58;100.00;93071.00;2106973;28;20556;-87
2021/07/27 03:21:33;;;;;;;7.03;4.90;;;;;;;9.55;100.00;93065.72;2098785;28;20024;-86
2021/07/27 03:22:34;;;;;;;8.05;5.30;;;;;;;9.58;100.00;93059.56;2098668;28;20070;-86
2021/07/27 03:23:35;;;;;;;5.88;5.10;;;;;;;9.51;100.00;93065.78;2103100;28;20079;-86
2021/07/27 03:24:36;;;;;;;8.48;5.03;;;;;;;9.43;100.00;93067.06;2098672;28;20055;-86
2021/07/27 03:25:36;;;;;;;5.72;4.47;;;;;;;9.48;100.00;93077.28;2099445;28;20028;-86
2021/07/27 03:26:37;;;;;;;6.45;5.15;;;;;;;9.47;100.00;93070.44;2106845;28;20063;-86
2021/07/27 03:27:39;;;;;;;9.25;5.50;;;;;;;9.58;100.00;93072.91;2107042;28;20122;-86
2021/07/27 03:28:40;;;;;;;6.45;4.55;;;;;;;9.47;100.00;93083.75;2106791;28;20105;-86
2021/07/27 03:29:41;;;;;;;6.40;4.65;;;;;;;9.51;100.00;93079.13;2107233;28;20032;-86
2021/07/27 03:30:42;;;;;;;7.53;4.90;;;;;;;9.52;100.00;93080.63;2115409;28;20023;-86
2021/07/27 03:31:43;;;;;;;7.95;4.70;;;;;;;9.54;100.00;93072.97;2106978;28;20106;-85
2021/07/27 03:32:47;;;;;;;14.75;5.25;;;;;;;9.62;100.00;93084.28;2107011;28;20024;-87
2021/07/27 03:33:48;;;;;;;20.90;4.78;;;;;;;9.64;100.00;93081.94;2107423;28;20026;-87
2021/07/27 03:34:49;;;;;;;50.83;4.85;;;;;;;9.65;100.00;93080.00;2115180;28;20070;-86
2021/07/27 03:35:50;;;;;;;21.90;4.05;;;;;;;9.64;100.00;93075.84;2123823;27;20027;-86
2021/07/27 03:36:51;;;;;;;9.75;4.45;;;;;;;9.65;100.00;93077.34;2114775;27;20015;-86
2021/07/27 03:37:52;;;;;;;22.38;4.53;;;;;;;9.61;100.00;93076.66;2107023;28;20024;-87
2021/07/27 03:38:55;;;;;;;5.13;4.25;;;;;;;9.52;100.00;93075.28;2106791;28;20082;-86
2021/07/27 03:39:56;;;;;;;13.60;4.25;;;;;;;9.53;100.00;93068.81;2097160;28;20111;-87
2021/07/27 03:41:05;;;;;;;26.98;3.97;;;;;;;9.55;100.00;93071.06;2105128;28;20507;-86
2021/07/27 03:42:06;;;;;;;4.82;3.72;;;;;;;9.60;100.00;93070.56;2100669;28;20115;-86
2021/07/27 03:43:07;;;;;;;8.30;3.85;;;;;;;9.62;100.00;93073.59;2106697;28;20039;-87
2021/07/27 03:44:08;;;;;;;4.88;4.40;;;;;;;9.59;100.00;93069.06;2106753;28;20385;-87
2021/07/27 03:45:09;;;;;;;8.23;4.35;;;;;;;9.62;100.00;93064.84;2095602;28;20020;-86
2021/07/27 03:46:10;;;;;;;7.88;3.97;;;;;;;9.62;100.00;93067.50;2098486;28;20021;-86
2021/07/27 03:47:11;;;;;;;15.95;4.28;;;;;;;9.67;100.00;93069.69;2090216;28;20493;-87
2021/07/27 03:48:15;;;;;;;6.30;4.07;;;;;;;9.60;100.00;93070.56;2100196;28;20017;-86
2021/07/27 03:49:15;;;;;;;12.13;4.68;;;;;;;9.63;100.00;93067.09;2095439;28;20017;-86
2021/07/27 03:50:16;;;;;;;4.68;4.20;;;;;;;9.64;100.00;93071.25;2098310;28;20032;-86
2021/07/27 03:51:17;;;;;;;5.40;4.57;;;;;;;9.64;100.00;93068.59;2111920;28;20101;-86
2021/07/27 03:52:18;;;;;;;6.18;4.82;;;;;;;9.62;100.00;93067.50;2115216;28;20024;-86
2021/07/27 03:53:26;;;;;;;6.85;4.88;;;;;;;9.62;100.00;93070.94;2106678;28;20027;-87
2021/07/27 03:54:28;;;;;;;4.88;4.47;;;;;;;9.64;100.00;93065.19;2106410;27;20470;-86
2021/07/27 03:55:29;;;;;;;4.68;4.20;;;;;;;9.64;100.00;93067.84;2115467;27;20027;-87
2021/07/27 03:56:30;;;;;;;7.15;5.00;;;;;;;9.59;100.00;93063.72;2106837;28;20023;-87
2021/07/27 03:57:32;;;;;;;6.07;5.35;;;;;;;9.58;100.00;93067.56;2106577;28;20024;-87
2021/07/27 03:58:33;;;;;;;4.57;4.18;;;;;;;9.60;100.00;93059.91;2097126;28;20477;-87
2021/07/27 03:59:34;;;;;;;5.63;5.13;;;;;;;9.59;100.00;93061.81;2097055;28;20024;-86
2021/07/27 04:00:35;;;;;;;6.03;4.55;;;;;;;9.59;100.00;93064.47;2097552;28;20020;-87
2021/07/27 04:01:36;;;;;;;5.70;4.78;;;;;;;9.58;100.00;93065.66;2098501;28;20027;-87
2021/07/27 04:02:38;;;;;;;7.65;5.35;;;;;;;9.58;100.00;93065.66;2098461;28;20078;-87
2021/07/27 04:03:39;;;;;;;8.48;5.05;;;;;;;9.62;100.00;93062.94;2098706;28;20070;-86
2021/07/27 04:04:41;;;;;;;8.07;5.50;;;;;;;9.59;100.00;93071.75;2114970;28;20093;-87
2021/07/27 04:05:43;;;;;;;5.32;4.63;;;;;;;9.58;100.00;93063.00;2106364;28;20020;-87
2021/07/27 04:06:46;;;;;;;5.70;5.15;;;;;;;9.55;100.00;93063.06;2097213;28;20371;-86
2021/07/27 04:07:46;;;;;;;6.22;4.72;;;;;;;9.56;100.00;93064.53;2099571;28;20693;-87
2021/07/27 04:08:47;;;;;;;6.75;4.78;;;;;;;9.54;100.00;93064.22;2098318;28;20035;-87
2021/07/27 04:09:48;;;;;;;7.38;4.93;;;;;;;9.56;100.00;93062.63;2096356;28;20100;-87
2021/07/27 04:10:50;;;;;;;7.13;5.13;;;;;;;9.56;100.00;93067.22;2098226;28;20041;-87
2021/07/27 04:11:51;;;;;;;6.00;5.25;;;;;;;9.56;100.00;93069.88;2098362;28;20044;-87
2021/07/27 04:12:52;;;;;;;5.65;4.60;;;;;;;9.51;100.00;93059.69;2095855;28;20028;-87
2021/07/27 04:13:53;;;;;;;5.30;4.65;;;;;;;9.49;100.00;93059.34;2098374;28;20099;-87
2021/07/27 04:14:54;;;;;;;5.30;4.72;;;;;;;9.45;100.00;93053.34;2106528;28;20065;-87
2021/07/27 04:15:55;;;;;;;6.05;4.47;;;;;;;9.42;100.00;93062.91;2106653;28;20028;-87
2021/07/27 04:16:56;;;;;;;6.00;4.57;;;;;;;9.36;100.00;93061.13;2106546;28;20024;-87
2021/07/27 04:17:57;;;;;;;6.75;4.65;;;;;;;9.30;100.00;93068.81;2106621;28;20377;-87
2021/07/27 04:18:58;;;;;;;6.75;4.35;;;;;;;9.37;100.00;93074.03;2106590;28;20032;-87
2021/07/27 04:19:59;;;;;;;6.95;4.30;;;;;;;9.40;100.00;93062.56;2114922;27;20024;-87
2021/07/27 04:21:01;;;;;;;5.22;4.53;;;;;;;9.39;100.00;93066.38;2106606;28;20408;-87
2021/07/27 04:22:02;;;;;;;14.00;5.65;;;;;;;9.41;100.00;93068.66;2100963;28;20107;-87
2021/07/27 04:23:04;;;;;;;6.35;5.53;;;;;;;9.43;100.00;93063.66;2106642;28;20039;-86
2021/07/27 04:24:04;;;;;;;5.25;4.75;;;;;;;9.45;100.00;93056.00;2105538;28;20106;-86
2021/07/27 04:25:06;;;;;;;7.78;5.05;;;;;;;9.44;100.00;93057.91;2104645;28;20020;-87
2021/07/27 04:26:07;;;;;;;5.43;4.85;;;;;;;9.47;100.00;93062.41;2098236;28;20382;-86
2021/07/27 04:27:07;;;;;;;12.55;5.45;;;;;;;9.47;100.00;93056.34;2106602;28;20039;-87
2021/07/27 04:28:08;;;;;;;6.13;4.60;;;;;;;9.48;100.00;93053.28;2097093;28;20048;-87
2021/07/27 04:29:09;;;;;;;7.57;4.75;;;;;;;9.47;100.00;93054.41;2105916;28;20050;-88
2021/07/27 04:30:10;;;;;;;7.38;5.25;;;;;;;9.55;100.00;93055.78;2097766;28;20024;-86
2021/07/27 04:31:11;;;;;;;5.72;5.22;;;;;;;9.54;100.00;93061.56;2098544;28;20101;-86
2021/07/27 04:32:12;;;;;;;5.07;4.63;;;;;;;9.53;100.00;93052.78;2108056;28;20427;-86
2021/07/27 04:33:17;;;;;;;5.00;4.50;;;;;;;9.55;100.00;93055.78;2097828;28;20027;-86
2021/07/27 04:34:18;;;;;;;5.43;4.90;;;;;;;9.57;100.00;93050.81;2099116;28;20027;-86
2021/07/27 04:35:19;;;;;;;8.38;5.28;;;;;;;9.56;100.00;93054.63;2095686;28;20115;-86
2021/07/27 04:36:20;;;;;;;5.63;5.03;;;;;;;9.56;100.00;93051.19;2094023;28;20456;-86
2021/07/27 04:37:21;;;;;;;5.88;5.05;;;;;;;9.51;100.00;93060.44;2103921;28;20428;-86
2021/07/27 04:38:22;;;;;;;10.82;5.60;;;;;;;9.61;100.00;93052.66;2104075;28;20028;-86
2021/07/27 04:39:34;;;;;;;6.03;5.13;;;;;;;9.60;100.00;93054.56;2103620;28;20039;-86
2021/07/27 04:40:35;;;;;;;5.88;5.25;;;;;;;9.56;100.00;93061.88;2098075;28;20048;-88
2021/07/27 04:41:36;;;;;;;7.60;4.90;;;;;;;9.65;100.00;93061.34;2106819;28;20016;-87
2021/07/27 04:42:37;;;;;;;6.20;4.93;;;;;;;9.63;100.00;93061.00;2098262;28;20462;-86
2021/07/27 04:43:39;;;;;;;6.68;5.35;;;;;;;9.68;100.00;93063.19;2097569;28;20016;-87
2021/07/27 04:44:40;;;;;;;7.32;5.80;;;;;;;9.64;100.00;93060.59;2106114;28;20070;-86
2021/07/27 04:45:41;;;;;;;6.32;5.22;;;;;;;9.68;100.00;93065.84;2108234;28;20068;-87
2021/07/27 04:46:42;;;;;;;6.13;5.45;;;;;;;9.74;100.00;93064.22;2110537;28;20035;-86
2021/07/27 04:47:43;;;;;;;7.05;5.57;;;;;;;9.75;100.00;93069.16;2109419;28;20053;-87
2021/07/27 04:48:43;;;;;;;7.47;5.45;;;;;;;9.77;100.00;93061.47;2094869;28;20048;-86
2021/07/27 04:49:44;;;;;;;5.65;5.03;;;;;;;9.76;100.00;93057.31;2097969;28;20028;-86
2021/07/27 04:50:46;;;;;;;7.05;5.22;;;;;;;9.76;100.00;93064.56;2097782;28;20027;-86
2021/07/27 04:51:47;;;;;;;9.07;5.90;;;;;;;9.79;100.00;93058.41;2094155;28;20098;-86
2021/07/27 04:52:59;;;;;;;6.43;5.80;;;;;;;9.81;100.00;93064.81;2114894;28;20065;-87
2021/07/27 04:54:04;;;;;;;6.60;5.63;;;;;;;9.83;100.00;93062.50;2109278;27;20392;-86
2021/07/27 04:55:05;;;;;;;7.72;5.47;;;;;;;9.83;100.00;93062.50;2106285;28;20458;-87
2021/07/27 04:56:06;;;;;;;6.78;5.53;;;;;;;9.89;100.00;93054.03;2114338;28;20464;-86
2021/07/27 04:57:10;;;;;;;6.28;5.68;;;;;;;9.90;100.00;93050.19;2114952;28;20055;-87
2021/07/27 04:58:11;;;;;;;15.80;5.55;;;;;;;9.96;100.00;93051.94;2106563;28;20124;-87
2021/07/27 04:59:12;;;;;;;6.28;5.68;;;;;;;9.98;100.00;93043.53;2106255;28;20024;-86
2021/07/27 05:00:20;;;;;;;6.20;5.60;;;;;;;10.00;100.00;93049.94;2103882;28;20023;-86
2021/07/27 05:01:21;;;;;;;10.07;5.30;;;;;;;10.01;100.00;93048.81;2104407;28;20024;-86
2021/07/27 05:02:23;;;;;;;5.28;4.80;;;;;;;10.06;100.00;93039.56;2093360;28;20689;-87
2021/07/27 05:03:23;;;;;;;8.45;5.70;;;;;;;10.05;100.00;93048.72;2095296;28;20021;-86
2021/07/27 05:04:26;;;;;;;6.32;5.72;;;;;;;10.09;100.00;93046.72;2106192;28;21006;-86
2021/07/27 05:05:27;;;;;;;7.57;5.55;;;;;;;10.11;100.00;93049.00;2106501;28;20540;-86
2021/07/27 05:06:28;;;;;;;9.55;7.43;;;;;;;10.14;100.00;93040.13;2097587;28;20044;-86
2021/07/27 05:07:29;;;;;;;7.35;6.28;;;;;;;10.17;100.00;93041.97;2107785;28;20024;-86
2021/07/27 05:08:30;;;;;;;5.95;5.38;;;;;;;10.18;100.00;93044.22;2102154;27;20105;-86
2021/07/27 05:09:31;;;;;;;7.50;5.80;;;;;;;10.24;100.00;93042.63;2114072;28;20099;-84
2021/07/27 05:10:33;;;;;;;9.40;6.38;;;;;;;10.29;100.00;93041.38;2097873;28;20025;-86
2021/07/27 05:11:34;;;;;;;7.32;5.88;;;;;;;10.44;100.00;93045.22;2106431;28;20051;-86
2021/07/27 05:12:36;;;;;;;8.98;5.78;;;;;;;10.44;100.00;93041.81;2106128;28;20958;-86